sensor_id;sensor_type;location;lat;lon;timestamp;temperature;humidity
56162;DHT22;42045;52.986;6.014;2023-03-01T00:01:46;0.10;99.90
56162;DHT22;42045;52.986;6.014;2023-03-01T00:04:12;0.00;99.90
56162;DHT22;42045;52.986;6.014;2023-03-01T00:06:37;0.00;99.90
56162;DHT22;42045;52.986;6.014;2023-03-01T00:09:03;-0.10;99.90
56162;DHT22;42045;52.986;6.014;2023-03-01T00:11:31;-0.10;99.90
56162;DHT22;42045;52.986;6.014;2023-03-01T00:13:59;-0.10;99.90
56162;DHT22;42045;52.986;6.014;2023-03-01T00:16:34;-0.20;99.90
56162;DHT22;42045;52.986;6.014;2023-03-01T00:19:01;-0.20;99.90
56162;DHT22;42045;52.986;6.014;2023-03-01T00:21:27;-0.30;99.90
56162;DHT22;42045;52.986;6.014;2023-03-01T00:23:54;-0.40;99.90
56162;DHT22;42045;52.986;6.014;2023-03-01T00:26:24;-0.40;99.90
56162;DHT22;42045;52.986;6.014;2023-03-01T00:28:49;-0.40;99.90
56162;DHT22;42045;52.986;6.014;2023-03-01T00:31:19;-0.40;99.90
56162;DHT22;42045;52.986;6.014;2023-03-01T00:33:45;-0.50;99.90
56162;DHT22;42045;52.986;6.014;2023-03-01T00:36:13;-0.50;99.90
56162;DHT22;42045;52.986;6.014;2023-03-01T00:38:42;-0.50;99.90
56162;DHT22;42045;52.986;6.014;2023-03-01T00:41:10;-0.50;99.90
56162;DHT22;42045;52.986;6.014;2023-03-01T00:43:36;-0.60;99.90
56162;DHT22;42045;52.986;6.014;2023-03-01T00:46:04;-0.50;99.90
56162;DHT22;42045;52.986;6.014;2023-03-01T00:48:31;-0.60;99.90
56162;DHT22;42045;52.986;6.014;2023-03-01T00:50:57;-0.60;99.90
56162;DHT22;42045;52.986;6.014;2023-03-01T00:53:22;-0.60;99.90
56162;DHT22;42045;52.986;6.014;2023-03-01T00:55:48;-0.70;99.90
56162;DHT22;42045;52.986;6.014;2023-03-01T00:58:14;-0.70;99.90
56162;DHT22;42045;52.986;6.014;2023-03-01T01:00:39;-0.80;99.90
56162;DHT22;42045;52.986;6.014;2023-03-01T01:03:05;-0.80;99.90
56162;DHT22;42045;52.986;6.014;2023-03-01T01:05:30;-0.80;99.90
56162;DHT22;42045;52.986;6.014;2023-03-01T01:07:59;-0.80;99.90
56162;DHT22;42045;52.986;6.014;2023-03-01T01:10:25;-0.90;99.90
56162;DHT22;42045;52.986;6.014;2023-03-01T01:12:50;-1.00;99.90
56162;DHT22;42045;52.986;6.014;2023-03-01T01:15:16;-1.00;99.90
56162;DHT22;42045;52.986;6.014;2023-03-01T01:17:42;-1.10;99.90
56162;DHT22;42045;52.986;6.014;2023-03-01T01:20:08;-1.20;99.90
56162;DHT22;42045;52.986;6.014;2023-03-01T01:22:34;-1.30;99.90
56162;DHT22;42045;52.986;6.014;2023-03-01T01:24:59;-1.40;99.90
56162;DHT22;42045;52.986;6.014;2023-03-01T01:27:25;-1.50;99.90
56162;DHT22;42045;52.986;6.014;2023-03-01T01:29:52;-1.60;99.90
56162;DHT22;42045;52.986;6.014;2023-03-01T01:32:18;-1.60;99.90
56162;DHT22;42045;52.986;6.014;2023-03-01T01:34:44;-1.60;99.90
56162;DHT22;42045;52.986;6.014;2023-03-01T01:37:09;-1.60;99.90
56162;DHT22;42045;52.986;6.014;2023-03-01T01:39:35;-1.70;99.90
56162;DHT22;42045;52.986;6.014;2023-03-01T01:42:01;-1.60;99.90
56162;DHT22;42045;52.986;6.014;2023-03-01T01:44:28;-1.60;99.90
56162;DHT22;42045;52.986;6.014;2023-03-01T01:47:12;-1.60;99.90
56162;DHT22;42045;52.986;6.014;2023-03-01T01:49:53;-1.60;99.90
56162;DHT22;42045;52.986;6.014;2023-03-01T01:52:26;-1.70;99.90
56162;DHT22;42045;52.986;6.014;2023-03-01T01:55:00;-1.70;99.90
56162;DHT22;42045;52.986;6.014;2023-03-01T01:57:40;-1.70;99.90
56162;DHT22;42045;52.986;6.014;2023-03-01T02:00:14;-1.80;99.90
56162;DHT22;42045;52.986;6.014;2023-03-01T02:02:41;-1.80;99.90
56162;DHT22;42045;52.986;6.014;2023-03-01T02:08:17;-1.80;99.90
56162;DHT22;42045;52.986;6.014;2023-03-01T02:10:44;-1.70;99.90
56162;DHT22;42045;52.986;6.014;2023-03-01T02:13:10;-1.80;99.90
56162;DHT22;42045;52.986;6.014;2023-03-01T02:15:38;-1.80;99.90
56162;DHT22;42045;52.986;6.014;2023-03-01T02:18:06;-1.80;99.90
56162;DHT22;42045;52.986;6.014;2023-03-01T02:23:17;-1.80;99.90
56162;DHT22;42045;52.986;6.014;2023-03-01T02:28:51;-1.80;99.90
56162;DHT22;42045;52.986;6.014;2023-03-01T02:31:19;-1.70;99.90
56162;DHT22;42045;52.986;6.014;2023-03-01T02:34:04;-1.80;99.90
56162;DHT22;42045;52.986;6.014;2023-03-01T02:36:43;-1.90;99.90
56162;DHT22;42045;52.986;6.014;2023-03-01T02:39:14;-1.90;99.90
56162;DHT22;42045;52.986;6.014;2023-03-01T02:41:46;-1.80;99.90
56162;DHT22;42045;52.986;6.014;2023-03-01T02:44:13;-1.90;99.90
56162;DHT22;42045;52.986;6.014;2023-03-01T02:46:50;-1.90;99.90
56162;DHT22;42045;52.986;6.014;2023-03-01T02:49:25;-1.90;99.90
56162;DHT22;42045;52.986;6.014;2023-03-01T02:55:13;-1.90;99.90
56162;DHT22;42045;52.986;6.014;2023-03-01T02:57:42;-1.90;99.90
56162;DHT22;42045;52.986;6.014;2023-03-01T03:00:13;-2.00;99.90
56162;DHT22;42045;52.986;6.014;2023-03-01T03:02:48;-1.90;99.90
56162;DHT22;42045;52.986;6.014;2023-03-01T03:05:21;-1.90;99.90
56162;DHT22;42045;52.986;6.014;2023-03-01T03:07:49;-2.00;99.90
56162;DHT22;42045;52.986;6.014;2023-03-01T03:10:21;-2.00;99.90
56162;DHT22;42045;52.986;6.014;2023-03-01T03:12:52;-2.10;99.90
56162;DHT22;42045;52.986;6.014;2023-03-01T03:15:18;-2.10;99.90
56162;DHT22;42045;52.986;6.014;2023-03-01T03:17:44;-2.10;99.90
56162;DHT22;42045;52.986;6.014;2023-03-01T03:20:11;-2.10;99.90
56162;DHT22;42045;52.986;6.014;2023-03-01T03:22:40;-2.20;99.90
56162;DHT22;42045;52.986;6.014;2023-03-01T03:25:07;-2.20;99.90
56162;DHT22;42045;52.986;6.014;2023-03-01T03:27:40;-2.30;99.90
56162;DHT22;42045;52.986;6.014;2023-03-01T03:30:08;-2.20;99.90
56162;DHT22;42045;52.986;6.014;2023-03-01T03:32:35;-2.20;99.90
56162;DHT22;42045;52.986;6.014;2023-03-01T03:35:03;-2.20;99.90
56162;DHT22;42045;52.986;6.014;2023-03-01T03:37:36;-2.20;99.90
56162;DHT22;42045;52.986;6.014;2023-03-01T03:40:20;-2.30;99.90
56162;DHT22;42045;52.986;6.014;2023-03-01T03:42:46;-2.30;99.90
56162;DHT22;42045;52.986;6.014;2023-03-01T03:45:12;-2.40;99.90
56162;DHT22;42045;52.986;6.014;2023-03-01T03:47:37;-2.40;99.90
56162;DHT22;42045;52.986;6.014;2023-03-01T03:50:03;-2.40;99.90
56162;DHT22;42045;52.986;6.014;2023-03-01T03:52:29;-2.50;99.90
56162;DHT22;42045;52.986;6.014;2023-03-01T03:54:54;-2.50;99.90
56162;DHT22;42045;52.986;6.014;2023-03-01T03:57:20;-2.60;99.90
56162;DHT22;42045;52.986;6.014;2023-03-01T03:59:46;-2.60;99.90
56162;DHT22;42045;52.986;6.014;2023-03-01T04:02:12;-2.50;99.90
56162;DHT22;42045;52.986;6.014;2023-03-01T04:04:38;-2.60;99.90
56162;DHT22;42045;52.986;6.014;2023-03-01T04:07:04;-2.70;99.90
56162;DHT22;42045;52.986;6.014;2023-03-01T04:09:30;-2.60;99.90
56162;DHT22;42045;52.986;6.014;2023-03-01T04:11:55;-2.60;99.90
56162;DHT22;42045;52.986;6.014;2023-03-01T04:14:21;-2.70;99.90
56162;DHT22;42045;52.986;6.014;2023-03-01T04:16:47;-2.60;99.90
56162;DHT22;42045;52.986;6.014;2023-03-01T04:19:12;-2.70;99.90
56162;DHT22;42045;52.986;6.014;2023-03-01T04:21:40;-2.70;99.90
56162;DHT22;42045;52.986;6.014;2023-03-01T04:24:06;-2.70;99.90
56162;DHT22;42045;52.986;6.014;2023-03-01T04:26:32;-2.70;99.90
56162;DHT22;42045;52.986;6.014;2023-03-01T04:28:58;-2.80;99.90
56162;DHT22;42045;52.986;6.014;2023-03-01T04:31:23;-2.80;99.90
56162;DHT22;42045;52.986;6.014;2023-03-01T04:33:51;-2.80;99.90
56162;DHT22;42045;52.986;6.014;2023-03-01T04:36:18;-2.80;99.90
56162;DHT22;42045;52.986;6.014;2023-03-01T04:38:45;-2.90;99.90
56162;DHT22;42045;52.986;6.014;2023-03-01T04:41:17;-3.00;99.90
56162;DHT22;42045;52.986;6.014;2023-03-01T04:43:43;-3.00;99.90
56162;DHT22;42045;52.986;6.014;2023-03-01T04:46:12;-3.00;99.90
56162;DHT22;42045;52.986;6.014;2023-03-01T04:48:39;-2.90;99.90
56162;DHT22;42045;52.986;6.014;2023-03-01T04:51:06;-3.00;99.90
56162;DHT22;42045;52.986;6.014;2023-03-01T04:53:32;-2.90;99.90
56162;DHT22;42045;52.986;6.014;2023-03-01T04:55:58;-3.00;99.90
56162;DHT22;42045;52.986;6.014;2023-03-01T04:58:26;-3.00;99.90
56162;DHT22;42045;52.986;6.014;2023-03-01T05:00:52;-3.00;99.90
56162;DHT22;42045;52.986;6.014;2023-03-01T05:03:19;-3.00;99.90
56162;DHT22;42045;52.986;6.014;2023-03-01T05:05:46;-3.10;99.90
56162;DHT22;42045;52.986;6.014;2023-03-01T05:08:13;-3.00;99.90
56162;DHT22;42045;52.986;6.014;2023-03-01T05:10:45;-3.20;99.90
56162;DHT22;42045;52.986;6.014;2023-03-01T05:13:12;-3.20;99.90
56162;DHT22;42045;52.986;6.014;2023-03-01T05:15:39;-3.20;99.90
56162;DHT22;42045;52.986;6.014;2023-03-01T05:18:05;-3.20;99.90
56162;DHT22;42045;52.986;6.014;2023-03-01T05:20:37;-3.20;99.90
56162;DHT22;42045;52.986;6.014;2023-03-01T05:23:03;-3.20;99.90
56162;DHT22;42045;52.986;6.014;2023-03-01T05:25:34;-3.20;99.90
56162;DHT22;42045;52.986;6.014;2023-03-01T05:28:02;-3.30;99.90
56162;DHT22;42045;52.986;6.014;2023-03-01T05:30:33;-3.30;99.90
56162;DHT22;42045;52.986;6.014;2023-03-01T05:32:59;-3.30;99.90
56162;DHT22;42045;52.986;6.014;2023-03-01T05:35:25;-3.30;99.90
56162;DHT22;42045;52.986;6.014;2023-03-01T05:37:51;-3.30;99.90
56162;DHT22;42045;52.986;6.014;2023-03-01T05:40:20;-3.30;99.90
56162;DHT22;42045;52.986;6.014;2023-03-01T05:42:47;-3.30;99.90
56162;DHT22;42045;52.986;6.014;2023-03-01T05:45:14;-3.30;99.90
56162;DHT22;42045;52.986;6.014;2023-03-01T05:47:41;-3.30;99.90
56162;DHT22;42045;52.986;6.014;2023-03-01T05:50:34;-3.30;99.90
56162;DHT22;42045;52.986;6.014;2023-03-01T05:53:02;-3.30;99.90
56162;DHT22;42045;52.986;6.014;2023-03-01T05:55:29;-3.40;99.90
56162;DHT22;42045;52.986;6.014;2023-03-01T05:57:58;-3.40;99.90
56162;DHT22;42045;52.986;6.014;2023-03-01T06:00:24;-3.50;99.90
56162;DHT22;42045;52.986;6.014;2023-03-01T06:02:50;-3.50;99.90
56162;DHT22;42045;52.986;6.014;2023-03-01T06:05:17;-3.50;99.90
56162;DHT22;42045;52.986;6.014;2023-03-01T06:07:43;-3.50;99.90
56162;DHT22;42045;52.986;6.014;2023-03-01T06:10:10;-3.60;99.90
56162;DHT22;42045;52.986;6.014;2023-03-01T06:12:37;-3.50;99.90
56162;DHT22;42045;52.986;6.014;2023-03-01T06:15:04;-3.60;99.90
56162;DHT22;42045;52.986;6.014;2023-03-01T06:17:32;-3.60;99.90
56162;DHT22;42045;52.986;6.014;2023-03-01T06:20:04;-3.60;99.90
56162;DHT22;42045;52.986;6.014;2023-03-01T06:22:30;-3.50;99.90
56162;DHT22;42045;52.986;6.014;2023-03-01T06:24:55;-3.50;99.90
56162;DHT22;42045;52.986;6.014;2023-03-01T06:27:21;-3.60;99.90
56162;DHT22;42045;52.986;6.014;2023-03-01T06:29:47;-3.60;99.90
56162;DHT22;42045;52.986;6.014;2023-03-01T06:32:12;-3.60;99.90
56162;DHT22;42045;52.986;6.014;2023-03-01T06:34:38;-3.60;99.90
56162;DHT22;42045;52.986;6.014;2023-03-01T06:37:04;-3.60;99.90
56162;DHT22;42045;52.986;6.014;2023-03-01T06:39:31;-3.50;99.90
56162;DHT22;42045;52.986;6.014;2023-03-01T06:41:56;-3.60;99.90
56162;DHT22;42045;52.986;6.014;2023-03-01T06:44:22;-3.50;99.90
56162;DHT22;42045;52.986;6.014;2023-03-01T06:46:48;-3.50;99.90
56162;DHT22;42045;52.986;6.014;2023-03-01T06:49:13;-3.40;99.90
56162;DHT22;42045;52.986;6.014;2023-03-01T06:51:41;-3.40;99.90
56162;DHT22;42045;52.986;6.014;2023-03-01T06:54:07;-3.20;99.90
56162;DHT22;42045;52.986;6.014;2023-03-01T06:56:33;-3.20;99.90
56162;DHT22;42045;52.986;6.014;2023-03-01T06:58:59;-3.10;99.90
56162;DHT22;42045;52.986;6.014;2023-03-01T07:01:24;-3.00;99.90
56162;DHT22;42045;52.986;6.014;2023-03-01T07:03:50;-2.90;99.90
56162;DHT22;42045;52.986;6.014;2023-03-01T07:06:16;-2.70;99.90
56162;DHT22;42045;52.986;6.014;2023-03-01T07:08:43;-2.40;99.90
56162;DHT22;42045;52.986;6.014;2023-03-01T07:11:08;-2.30;99.90
56162;DHT22;42045;52.986;6.014;2023-03-01T07:13:34;-2.20;99.90
56162;DHT22;42045;52.986;6.014;2023-03-01T07:16:00;-2.10;99.90
56162;DHT22;42045;52.986;6.014;2023-03-01T07:18:26;-2.10;99.90
56162;DHT22;42045;52.986;6.014;2023-03-01T07:20:51;-2.20;99.90
56162;DHT22;42045;52.986;6.014;2023-03-01T07:23:17;-2.20;99.90
56162;DHT22;42045;52.986;6.014;2023-03-01T07:25:43;-2.20;99.90
56162;DHT22;42045;52.986;6.014;2023-03-01T07:28:08;-2.20;99.90
56162;DHT22;42045;52.986;6.014;2023-03-01T07:30:34;-2.10;99.90
56162;DHT22;42045;52.986;6.014;2023-03-01T07:33:00;-2.10;99.90
56162;DHT22;42045;52.986;6.014;2023-03-01T07:35:26;-2.10;99.90
56162;DHT22;42045;52.986;6.014;2023-03-01T07:37:53;-2.00;99.90
56162;DHT22;42045;52.986;6.014;2023-03-01T07:40:19;-1.90;99.90
56162;DHT22;42045;52.986;6.014;2023-03-01T07:42:45;-1.80;99.90
56162;DHT22;42045;52.986;6.014;2023-03-01T07:45:26;-1.80;99.90
56162;DHT22;42045;52.986;6.014;2023-03-01T07:47:52;-1.50;99.90
56162;DHT22;42045;52.986;6.014;2023-03-01T07:50:19;-1.40;99.90
56162;DHT22;42045;52.986;6.014;2023-03-01T07:52:46;-1.20;99.90
56162;DHT22;42045;52.986;6.014;2023-03-01T07:55:12;-1.00;99.90
56162;DHT22;42045;52.986;6.014;2023-03-01T07:57:38;-0.70;99.90
56162;DHT22;42045;52.986;6.014;2023-03-01T08:00:04;-0.40;99.90
56162;DHT22;42045;52.986;6.014;2023-03-01T08:02:31;-0.20;99.90
56162;DHT22;42045;52.986;6.014;2023-03-01T08:04:57;0.10;99.90
56162;DHT22;42045;52.986;6.014;2023-03-01T08:07:22;0.40;99.90
56162;DHT22;42045;52.986;6.014;2023-03-01T08:09:48;0.60;99.90
56162;DHT22;42045;52.986;6.014;2023-03-01T08:12:14;0.90;99.90
56162;DHT22;42045;52.986;6.014;2023-03-01T08:14:41;1.10;99.90
56162;DHT22;42045;52.986;6.014;2023-03-01T08:17:07;1.30;99.90
56162;DHT22;42045;52.986;6.014;2023-03-01T08:19:33;1.50;99.90
56162;DHT22;42045;52.986;6.014;2023-03-01T08:22:02;1.60;99.90
56162;DHT22;42045;52.986;6.014;2023-03-01T08:24:28;1.70;99.90
56162;DHT22;42045;52.986;6.014;2023-03-01T08:26:54;1.80;99.90
56162;DHT22;42045;52.986;6.014;2023-03-01T08:29:20;1.90;99.90
56162;DHT22;42045;52.986;6.014;2023-03-01T08:31:46;2.10;99.90
56162;DHT22;42045;52.986;6.014;2023-03-01T08:34:16;2.20;99.90
56162;DHT22;42045;52.986;6.014;2023-03-01T08:36:44;2.20;99.90
56162;DHT22;42045;52.986;6.014;2023-03-01T08:39:12;2.20;99.90
56162;DHT22;42045;52.986;6.014;2023-03-01T08:41:38;2.30;99.90
56162;DHT22;42045;52.986;6.014;2023-03-01T08:44:05;2.40;99.90
56162;DHT22;42045;52.986;6.014;2023-03-01T08:46:37;2.40;99.90
56162;DHT22;42045;52.986;6.014;2023-03-01T08:49:21;2.60;99.90
56162;DHT22;42045;52.986;6.014;2023-03-01T08:51:47;2.60;99.90
56162;DHT22;42045;52.986;6.014;2023-03-01T08:54:16;2.70;99.90
56162;DHT22;42045;52.986;6.014;2023-03-01T08:56:41;2.60;99.90
56162;DHT22;42045;52.986;6.014;2023-03-01T08:59:07;2.70;99.90
56162;DHT22;42045;52.986;6.014;2023-03-01T09:01:34;2.70;99.90
56162;DHT22;42045;52.986;6.014;2023-03-01T09:04:00;2.80;99.90
56162;DHT22;42045;52.986;6.014;2023-03-01T09:06:25;2.80;99.90
56162;DHT22;42045;52.986;6.014;2023-03-01T09:08:51;2.90;99.90
56162;DHT22;42045;52.986;6.014;2023-03-01T09:11:20;3.00;99.90
56162;DHT22;42045;52.986;6.014;2023-03-01T09:13:47;3.10;99.90
56162;DHT22;42045;52.986;6.014;2023-03-01T09:16:15;3.20;99.90
56162;DHT22;42045;52.986;6.014;2023-03-01T09:22:15;3.40;99.90
56162;DHT22;42045;52.986;6.014;2023-03-01T09:24:40;3.60;99.90
56162;DHT22;42045;52.986;6.014;2023-03-01T09:27:06;3.70;99.90
56162;DHT22;42045;52.986;6.014;2023-03-01T09:29:37;3.80;99.90
56162;DHT22;42045;52.986;6.014;2023-03-01T09:32:02;3.90;99.90
56162;DHT22;42045;52.986;6.014;2023-03-01T09:34:28;4.00;99.90
56162;DHT22;42045;52.986;6.014;2023-03-01T09:36:54;4.10;99.90
56162;DHT22;42045;52.986;6.014;2023-03-01T09:39:20;4.20;99.90
56162;DHT22;42045;52.986;6.014;2023-03-01T09:42:02;4.40;99.90
56162;DHT22;42045;52.986;6.014;2023-03-01T09:47:24;4.60;99.90
56162;DHT22;42045;52.986;6.014;2023-03-01T09:50:09;4.60;99.90
56162;DHT22;42045;52.986;6.014;2023-03-01T09:52:39;4.60;99.90
56162;DHT22;42045;52.986;6.014;2023-03-01T09:55:12;4.70;99.90
56162;DHT22;42045;52.986;6.014;2023-03-01T10:03:12;5.10;99.90
56162;DHT22;42045;52.986;6.014;2023-03-01T10:05:50;5.10;99.90
56162;DHT22;42045;52.986;6.014;2023-03-01T10:08:31;5.20;99.90
56162;DHT22;42045;52.986;6.014;2023-03-01T10:11:02;5.30;99.90
56162;DHT22;42045;52.986;6.014;2023-03-01T10:16:16;5.50;99.90
56162;DHT22;42045;52.986;6.014;2023-03-01T10:18:46;5.60;99.90
56162;DHT22;42045;52.986;6.014;2023-03-01T10:21:18;5.70;99.90
56162;DHT22;42045;52.986;6.014;2023-03-01T10:23:44;5.70;99.90
56162;DHT22;42045;52.986;6.014;2023-03-01T10:34:18;6.00;99.90
56162;DHT22;42045;52.986;6.014;2023-03-01T10:36:47;6.20;99.90
56162;DHT22;42045;52.986;6.014;2023-03-01T10:39:19;6.20;99.90
56162;DHT22;42045;52.986;6.014;2023-03-01T10:41:54;6.30;99.90
56162;DHT22;42045;52.986;6.014;2023-03-01T10:44:39;6.40;99.90
56162;DHT22;42045;52.986;6.014;2023-03-01T10:49:58;6.50;99.90
56162;DHT22;42045;52.986;6.014;2023-03-01T10:52:36;6.50;99.90
56162;DHT22;42045;52.986;6.014;2023-03-01T10:57:42;6.60;99.90
56162;DHT22;42045;52.986;6.014;2023-03-01T11:00:20;6.50;99.90
56162;DHT22;42045;52.986;6.014;2023-03-01T11:05:50;6.60;99.90
56162;DHT22;42045;52.986;6.014;2023-03-01T11:17:30;6.60;99.90
56162;DHT22;42045;52.986;6.014;2023-03-01T11:22:26;6.60;99.90
56162;DHT22;42045;52.986;6.014;2023-03-01T11:24:54;6.60;99.90
56162;DHT22;42045;52.986;6.014;2023-03-01T11:27:47;6.70;99.90
56162;DHT22;42045;52.986;6.014;2023-03-01T11:30:26;6.70;99.90
56162;DHT22;42045;52.986;6.014;2023-03-01T11:38:32;6.90;99.90
56162;DHT22;42045;52.986;6.014;2023-03-01T11:41:01;6.90;99.90
56162;DHT22;42045;52.986;6.014;2023-03-01T12:08:19;7.00;99.90
56162;DHT22;42045;52.986;6.014;2023-03-01T12:17:03;7.00;99.90
56162;DHT22;42045;52.986;6.014;2023-03-01T12:30:42;7.10;99.90
56162;DHT22;42045;52.986;6.014;2023-03-01T12:33:17;7.10;99.90
56162;DHT22;42045;52.986;6.014;2023-03-01T12:38:49;7.10;99.90
56162;DHT22;42045;52.986;6.014;2023-03-01T12:42:34;7.10;99.90
56162;DHT22;42045;52.986;6.014;2023-03-01T12:49:42;7.20;99.90
56162;DHT22;42045;52.986;6.014;2023-03-01T12:52:17;7.20;99.90
56162;DHT22;42045;52.986;6.014;2023-03-01T12:54:46;7.20;99.90
56162;DHT22;42045;52.986;6.014;2023-03-01T12:57:27;7.20;99.90
56162;DHT22;42045;52.986;6.014;2023-03-01T13:06:18;7.30;99.90
56162;DHT22;42045;52.986;6.014;2023-03-01T13:11:26;7.30;99.90
56162;DHT22;42045;52.986;6.014;2023-03-01T13:13:51;7.30;99.90
56162;DHT22;42045;52.986;6.014;2023-03-01T13:16:40;7.40;99.90
56162;DHT22;42045;52.986;6.014;2023-03-01T13:21:35;7.40;99.90
56162;DHT22;42045;52.986;6.014;2023-03-01T13:24:01;7.40;99.90
56162;DHT22;42045;52.986;6.014;2023-03-01T13:26:27;7.40;99.90
56162;DHT22;42045;52.986;6.014;2023-03-01T13:28:58;7.40;99.90
56162;DHT22;42045;52.986;6.014;2023-03-01T13:33:56;7.40;99.90
56162;DHT22;42045;52.986;6.014;2023-03-01T13:46:43;7.40;99.90
56162;DHT22;42045;52.986;6.014;2023-03-01T13:49:13;7.40;99.90
56162;DHT22;42045;52.986;6.014;2023-03-01T13:51:39;7.30;99.90
56162;DHT22;42045;52.986;6.014;2023-03-01T13:54:09;7.30;99.90
56162;DHT22;42045;52.986;6.014;2023-03-01T13:56:37;7.30;99.90
56162;DHT22;42045;52.986;6.014;2023-03-01T13:59:20;7.40;99.90
56162;DHT22;42045;52.986;6.014;2023-03-01T14:01:54;7.40;99.90
56162;DHT22;42045;52.986;6.014;2023-03-01T14:06:51;7.40;99.90
56162;DHT22;42045;52.986;6.014;2023-03-01T14:09:21;7.40;99.90
56162;DHT22;42045;52.986;6.014;2023-03-01T14:15:02;7.30;99.90
56162;DHT22;42045;52.986;6.014;2023-03-01T14:17:50;7.30;99.90
56162;DHT22;42045;52.986;6.014;2023-03-01T14:20:41;7.30;99.90
56162;DHT22;42045;52.986;6.014;2023-03-01T14:23:12;7.30;99.90
56162;DHT22;42045;52.986;6.014;2023-03-01T14:25:52;7.30;99.90
56162;DHT22;42045;52.986;6.014;2023-03-01T14:30:56;7.30;99.90
56162;DHT22;42045;52.986;6.014;2023-03-01T14:33:27;7.30;99.90
56162;DHT22;42045;52.986;6.014;2023-03-01T14:36:09;7.30;99.90
56162;DHT22;42045;52.986;6.014;2023-03-01T14:38:38;7.30;99.90
56162;DHT22;42045;52.986;6.014;2023-03-01T14:41:15;7.30;99.90
56162;DHT22;42045;52.986;6.014;2023-03-01T14:43:44;7.30;99.90
56162;DHT22;42045;52.986;6.014;2023-03-01T14:46:21;7.30;99.90
56162;DHT22;42045;52.986;6.014;2023-03-01T14:48:58;7.20;99.90
56162;DHT22;42045;52.986;6.014;2023-03-01T14:51:26;7.30;99.90
56162;DHT22;42045;52.986;6.014;2023-03-01T14:53:52;7.20;99.90
56162;DHT22;42045;52.986;6.014;2023-03-01T14:56:19;7.20;99.90
56162;DHT22;42045;52.986;6.014;2023-03-01T14:58:46;7.20;99.90
56162;DHT22;42045;52.986;6.014;2023-03-01T15:01:16;7.20;99.90
56162;DHT22;42045;52.986;6.014;2023-03-01T15:03:47;7.10;99.90
56162;DHT22;42045;52.986;6.014;2023-03-01T15:06:19;7.20;99.90
56162;DHT22;42045;52.986;6.014;2023-03-01T15:08:51;7.10;99.90
56162;DHT22;42045;52.986;6.014;2023-03-01T15:11:23;7.10;99.90
56162;DHT22;42045;52.986;6.014;2023-03-01T15:13:51;7.10;99.90
56162;DHT22;42045;52.986;6.014;2023-03-01T15:16:40;7.20;99.90
56162;DHT22;42045;52.986;6.014;2023-03-01T15:19:07;7.20;99.90
56162;DHT22;42045;52.986;6.014;2023-03-01T15:21:35;7.10;99.90
56162;DHT22;42045;52.986;6.014;2023-03-01T15:26:33;7.10;99.90
56162;DHT22;42045;52.986;6.014;2023-03-01T15:29:01;7.10;99.90
56162;DHT22;42045;52.986;6.014;2023-03-01T15:31:28;7.10;99.90
56162;DHT22;42045;52.986;6.014;2023-03-01T15:34:09;7.00;99.90
56162;DHT22;42045;52.986;6.014;2023-03-01T15:39:42;6.90;99.90
56162;DHT22;42045;52.986;6.014;2023-03-01T15:48:01;6.80;99.90
56162;DHT22;42045;52.986;6.014;2023-03-01T15:50:36;6.80;99.90
56162;DHT22;42045;52.986;6.014;2023-03-01T15:53:08;6.80;99.90
56162;DHT22;42045;52.986;6.014;2023-03-01T15:55:36;6.80;99.90
56162;DHT22;42045;52.986;6.014;2023-03-01T15:58:20;6.70;99.90
56162;DHT22;42045;52.986;6.014;2023-03-01T16:00:47;6.70;99.90
56162;DHT22;42045;52.986;6.014;2023-03-01T16:03:14;6.70;99.90
56162;DHT22;42045;52.986;6.014;2023-03-01T16:05:47;6.60;99.90
56162;DHT22;42045;52.986;6.014;2023-03-01T16:08:14;6.60;99.90
56162;DHT22;42045;52.986;6.014;2023-03-01T16:10:41;6.50;99.90
56162;DHT22;42045;52.986;6.014;2023-03-01T16:13:12;6.50;99.90
56162;DHT22;42045;52.986;6.014;2023-03-01T16:15:39;6.50;99.90
56162;DHT22;42045;52.986;6.014;2023-03-01T16:18:05;6.40;99.90
56162;DHT22;42045;52.986;6.014;2023-03-01T16:20:31;6.40;99.90
56162;DHT22;42045;52.986;6.014;2023-03-01T16:23:09;6.30;99.90
56162;DHT22;42045;52.986;6.014;2023-03-01T16:25:36;6.30;99.90
56162;DHT22;42045;52.986;6.014;2023-03-01T16:28:02;6.20;99.90
56162;DHT22;42045;52.986;6.014;2023-03-01T16:30:34;6.20;99.90
56162;DHT22;42045;52.986;6.014;2023-03-01T16:33:00;6.10;99.90
56162;DHT22;42045;52.986;6.014;2023-03-01T16:35:27;6.10;99.90
56162;DHT22;42045;52.986;6.014;2023-03-01T16:37:52;6.00;99.90
56162;DHT22;42045;52.986;6.014;2023-03-01T16:40:27;5.90;99.90
56162;DHT22;42045;52.986;6.014;2023-03-01T16:42:54;5.90;99.90
56162;DHT22;42045;52.986;6.014;2023-03-01T16:45:32;5.90;99.90
56162;DHT22;42045;52.986;6.014;2023-03-01T16:47:59;5.80;99.90
56162;DHT22;42045;52.986;6.014;2023-03-01T16:50:25;5.80;99.90
56162;DHT22;42045;52.986;6.014;2023-03-01T16:52:50;5.70;99.90
56162;DHT22;42045;52.986;6.014;2023-03-01T16:55:16;5.60;99.90
56162;DHT22;42045;52.986;6.014;2023-03-01T16:57:42;5.50;99.90
56162;DHT22;42045;52.986;6.014;2023-03-01T17:00:09;5.40;99.90
56162;DHT22;42045;52.986;6.014;2023-03-01T17:02:36;5.40;99.90
56162;DHT22;42045;52.986;6.014;2023-03-01T17:05:03;5.30;99.90
56162;DHT22;42045;52.986;6.014;2023-03-01T17:07:30;5.20;99.90
56162;DHT22;42045;52.986;6.014;2023-03-01T17:10:00;5.20;99.90
56162;DHT22;42045;52.986;6.014;2023-03-01T17:12:25;5.10;99.90
56162;DHT22;42045;52.986;6.014;2023-03-01T17:14:51;5.00;99.90
56162;DHT22;42045;52.986;6.014;2023-03-01T17:17:17;5.00;99.90
56162;DHT22;42045;52.986;6.014;2023-03-01T17:19:42;4.80;99.90
56162;DHT22;42045;52.986;6.014;2023-03-01T17:22:10;4.70;99.90
56162;DHT22;42045;52.986;6.014;2023-03-01T17:24:37;4.60;99.90
56162;DHT22;42045;52.986;6.014;2023-03-01T17:27:03;4.50;99.90
56162;DHT22;42045;52.986;6.014;2023-03-01T17:29:29;4.40;99.90
56162;DHT22;42045;52.986;6.014;2023-03-01T17:31:55;4.30;99.90
56162;DHT22;42045;52.986;6.014;2023-03-01T17:34:22;4.20;99.90
56162;DHT22;42045;52.986;6.014;2023-03-01T17:36:49;4.10;99.90
56162;DHT22;42045;52.986;6.014;2023-03-01T17:39:17;4.00;99.90
56162;DHT22;42045;52.986;6.014;2023-03-01T17:41:45;3.80;99.90
56162;DHT22;42045;52.986;6.014;2023-03-01T17:44:10;3.50;99.90
56162;DHT22;42045;52.986;6.014;2023-03-01T17:46:36;3.40;99.90
56162;DHT22;42045;52.986;6.014;2023-03-01T17:49:02;3.30;99.90
56162;DHT22;42045;52.986;6.014;2023-03-01T17:51:28;3.30;99.90
56162;DHT22;42045;52.986;6.014;2023-03-01T17:53:54;3.30;99.90
56162;DHT22;42045;52.986;6.014;2023-03-01T17:56:20;3.40;99.90
56162;DHT22;42045;52.986;6.014;2023-03-01T17:58:45;3.40;99.90
56162;DHT22;42045;52.986;6.014;2023-03-01T18:01:19;3.30;99.90
56162;DHT22;42045;52.986;6.014;2023-03-01T18:03:45;3.30;99.90
56162;DHT22;42045;52.986;6.014;2023-03-01T18:06:14;3.30;99.90
56162;DHT22;42045;52.986;6.014;2023-03-01T18:08:41;3.20;99.90
56162;DHT22;42045;52.986;6.014;2023-03-01T18:11:07;3.20;99.90
56162;DHT22;42045;52.986;6.014;2023-03-01T18:13:34;3.20;99.90
56162;DHT22;42045;52.986;6.014;2023-03-01T18:16:03;3.10;99.90
56162;DHT22;42045;52.986;6.014;2023-03-01T18:18:29;3.10;99.90
56162;DHT22;42045;52.986;6.014;2023-03-01T18:20:56;3.20;99.90
56162;DHT22;42045;52.986;6.014;2023-03-01T18:23:23;3.20;99.90